Time;durP1;ratioP1;P1;durP2;ratioP2;P2;SDS_P1;SDS_P2;PMS_P1;PMS_P2;Temp;Humidity;BMP_temperature;BMP_pressure;BME280_temperature;BME280_humidity;BME280_pressure;Samples;Min_cycle;Max_cycle;Signal;HPM_P1;HPM_P2
2024/03/15 00:02:23;;;;;;;8.75;4.55;;;;;;;11.27;81.14;98675.94;5025877;28;20061;-48
2024/03/15 00:04:52;;;;;;;12.80;4.07;;;;;;;11.22;82.01;98680.41;5017242;28;20064;-48
2024/03/15 00:07:19;;;;;;;4.95;2.67;;;;;;;11.18;81.17;98678.81;5021946;28;20057;-46
2024/03/15 00:09:45;;;;;;;6.97;2.65;;;;;;;11.18;82.08;98678.81;5031040;28;20406;-51
2024/03/15 00:12:12;;;;;;;10.07;4.00;;;;;;;11.17;82.56;98671.91;5044313;28;20497;-51
2024/03/15 00:14:42;;;;;;;9.13;3.38;;;;;;;11.20;81.78;98682.19;5006977;28;20482;-47
2024/03/15 00:17:11;;;;;;;8.70;5.25;;;;;;;11.19;82.94;98686.50;5028038;28;20051;-49
2024/03/15 00:19:38;;;;;;;6.30;3.00;;;;;;;11.13;83.32;98671.16;5031287;28;20054;-43
2024/03/15 00:22:06;;;;;;;6.47;3.35;;;;;;;11.13;82.27;98680.66;5003973;28;20048;-49
2024/03/15 00:24:34;;;;;;;10.45;3.55;;;;;;;11.18;82.97;98678.81;5005479;28;21646;-49
2024/03/15 00:27:01;;;;;;;11.30;3.65;;;;;;;11.13;83.09;98685.84;5027371;28;20088;-45
2024/03/15 00:29:28;;;;;;;7.90;3.13;;;;;;;11.13;83.10;98691.00;5010065;28;20058;-52
2024/03/15 00:31:56;;;;;;;8.05;3.05;;;;;;;11.15;83.67;98692.66;5010402;28;20045;-50
2024/03/15 00:34:23;;;;;;;4.00;2.53;;;;;;;11.19;83.48;98691.69;5005045;28;20116;-54
2024/03/15 00:36:52;;;;;;;4.22;2.90;;;;;;;11.14;82.55;98692.72;5005496;28;20049;-50
2024/03/15 00:39:22;;;;;;;9.02;3.05;;;;;;;11.15;82.94;98689.25;5003913;28;20054;-46
2024/03/15 00:41:49;;;;;;;9.90;4.05;;;;;;;11.19;82.56;98691.69;5003720;28;20049;-47
2024/03/15 00:44:15;;;;;;;10.48;3.80;;;;;;;11.21;82.41;98689.06;5004096;28;20132;-47
2024/03/15 00:46:42;;;;;;;4.40;2.78;;;;;;;11.15;83.47;98684.06;5014101;28;20441;-46
2024/03/15 00:49:10;;;;;;;6.85;3.08;;;;;;;11.12;83.64;98678.97;5004457;28;20050;-49
2024/03/15 00:51:37;;;;;;;4.75;1.30;;;;;;;11.12;83.04;98684.13;5006362;28;20422;-47
2024/03/15 00:54:04;;;;;;;4.57;2.30;;;;;;;11.09;83.86;98681.63;5004300;28;20523;-48
2024/03/15 00:56:31;;;;;;;6.28;2.55;;;;;;;11.08;83.30;98687.72;5005776;28;20054;-54
2024/03/15 00:58:57;;;;;;;8.05;2.95;;;;;;;11.14;83.84;98687.53;5004412;28;20506;-48
2024/03/15 01:01:24;;;;;;;7.50;3.15;;;;;;;11.19;83.40;98685.69;5007775;28;20569;-45
2024/03/15 01:03:51;;;;;;;6.47;3.03;;;;;;;11.19;83.52;98683.09;5006059;28;20076;-47
2024/03/15 01:06:18;;;;;;;6.40;2.33;;;;;;;11.14;83.61;98687.53;5005221;28;20100;-51
2024/03/15 01:08:45;;;;;;;11.82;2.88;;;;;;;11.24;82.31;98678.63;5006955;28;20050;-49
2024/03/15 01:11:11;;;;;;;12.20;2.95;;;;;;;11.19;83.06;98683.91;5004485;28;20069;-51
2024/03/15 01:13:38;;;;;;;4.93;2.45;;;;;;;11.19;82.87;98675.31;5006664;28;20045;-50
2024/03/15 01:16:05;;;;;;;4.45;1.98;;;;;;;11.11;82.74;98672.09;5004181;28;20062;-48
2024/03/15 01:18:33;;;;;;;6.18;2.95;;;;;;;11.13;83.16;98678.06;5021929;28;20045;-52
2024/03/15 01:21:01;;;;;;;10.27;3.38;;;;;;;11.11;82.16;98672.91;5025851;28;20052;-50
2024/03/15 01:23:29;;;;;;;6.63;2.92;;;;;;;11.08;83.01;98682.53;5003326;28;20517;-48
2024/03/15 01:25:56;;;;;;;1.88;1.77;;;;;;;10.99;83.88;98689.66;5000945;28;20061;-46
2024/03/15 01:28:23;;;;;;;6.22;2.45;;;;;;;11.06;82.11;98687.75;5010256;28;20076;-45
2024/03/15 01:30:50;;;;;;;10.25;3.05;;;;;;;11.12;81.96;98686.72;5014347;28;20456;-49
2024/03/15 01:33:16;;;;;;;8.05;2.28;;;;;;;11.08;82.59;98692.88;5024203;28;20091;-45
2024/03/15 01:35:43;;;;;;;2.85;2.42;;;;;;;11.02;82.98;98684.38;5024589;28;20075;-46
2024/03/15 01:38:10;;;;;;;2.70;2.50;;;;;;;11.11;82.72;98666.91;5026321;28;20068;-48
2024/03/15 01:40:37;;;;;;;4.55;2.85;;;;;;;11.13;82.39;98675.47;5010858;28;20057;-48
2024/03/15 01:43:04;;;;;;;3.13;1.85;;;;;;;11.01;82.42;98669.72;5001651;28;20172;-50
2024/03/15 01:45:31;;;;;;;5.80;2.38;;;;;;;11.02;82.74;98671.41;5000934;28;20061;-46
2024/03/15 01:47:58;;;;;;;3.22;1.92;;;;;;;10.97;81.90;98665.50;5007119;28;20048;-51
2024/03/15 01:50:26;;;;;;;4.13;2.40;;;;;;;10.95;81.86;98666.44;5002259;28;20842;-45
2024/03/15 01:52:56;;;;;;;3.58;2.45;;;;;;;10.93;81.45;98663.91;5001937;28;20133;-50
2024/03/15 01:55:24;;;;;;;5.75;2.40;;;;;;;10.90;82.20;98653.59;5004576;28;20053;-48
2024/03/15 01:57:51;;;;;;;6.80;4.32;;;;;;;10.86;82.15;98657.19;5004729;28;20525;-48
2024/03/15 02:00:18;;;;;;;4.38;2.10;;;;;;;10.77;81.94;98658.25;5002770;28;20077;-46
2024/03/15 02:02:44;;;;;;;3.25;2.25;;;;;;;10.76;82.32;98667.78;5003410;28;20077;-45
2024/03/15 02:05:11;;;;;;;5.40;2.17;;;;;;;10.70;82.70;98667.94;5006606;28;20733;-49
2024/03/15 02:07:37;;;;;;;3.70;2.47;;;;;;;10.74;81.85;98664.38;5004435;28;20734;-47
2024/03/15 02:10:14;;;;;;;6.47;2.22;;;;;;;10.70;81.93;98670.53;5002597;28;20053;-47
2024/03/15 02:12:41;;;;;;;4.63;2.03;;;;;;;10.67;81.94;98668.00;5011658;28;20049;-47
2024/03/15 02:15:08;;;;;;;6.88;2.58;;;;;;;10.67;81.80;98660.25;5002435;28;20050;-47
2024/03/15 02:17:37;;;;;;;3.67;2.85;;;;;;;10.63;81.71;98656.88;5002349;28;20048;-47
2024/03/15 02:20:06;;;;;;;5.05;3.05;;;;;;;10.57;82.18;98651.84;5005570;28;20556;-44
2024/03/15 02:22:33;;;;;;;4.07;2.30;;;;;;;10.53;82.02;98661.44;5038722;28;20077;-45
2024/03/15 02:25:00;;;;;;;5.88;2.45;;;;;;;10.40;82.11;98654.81;5019561;28;20148;-50
2024/03/15 02:27:28;;;;;;;3.75;2.58;;;;;;;10.43;81.97;98659.94;5009121;28;20060;-44
2024/03/15 02:29:55;;;;;;;3.85;2.20;;;;;;;10.49;82.13;98654.66;5006502;28;20807;-46
2024/03/15 02:32:23;;;;;;;5.03;2.00;;;;;;;10.40;82.29;98650.50;5003238;28;20065;-48
2024/03/15 02:34:51;;;;;;;7.20;1.80;;;;;;;10.41;82.47;98638.44;5008151;28;20128;-46
2024/03/15 02:37:19;;;;;;;10.40;2.65;;;;;;;10.36;82.26;98648.03;5004446;28;20049;-47
2024/03/15 02:39:46;;;;;;;10.93;2.47;;;;;;;10.41;81.08;98651.38;5003879;28;20549;-47
2024/03/15 02:42:13;;;;;;;9.00;2.70;;;;;;;10.40;81.23;98657.41;5001106;28;20062;-44
2024/03/15 02:44:39;;;;;;;11.90;3.03;;;;;;;10.42;81.59;98658.25;5004069;28;20054;-49
2024/03/15 02:47:06;;;;;;;9.52;2.33;;;;;;;10.36;81.46;98645.44;5003837;28;20045;-47
2024/03/15 02:49:33;;;;;;;10.52;3.00;;;;;;;10.38;81.16;98644.53;5003854;28;20061;-45
2024/03/15 02:52:00;;;;;;;8.68;2.25;;;;;;;10.32;80.70;98651.56;5007596;28;20064;-50
2024/03/15 02:54:28;;;;;;;3.55;2.20;;;;;;;10.25;81.05;98646.56;5003460;28;20060;-48
2024/03/15 02:56:55;;;;;;;11.13;2.88;;;;;;;10.37;81.39;98647.16;5005583;28;20216;-48
2024/03/15 02:59:23;;;;;;;7.95;4.00;;;;;;;10.38;81.19;98648.84;5003428;28;20057;-51
2024/03/15 03:01:51;;;;;;;7.75;3.55;;;;;;;10.36;81.17;98633.34;5004442;28;20108;-46
2024/03/15 03:04:19;;;;;;;3.47;2.55;;;;;;;10.31;80.85;98642.13;5002133;28;20057;-45
2024/03/15 03:06:46;;;;;;;8.80;3.15;;;;;;;10.31;80.62;98644.72;5006277;28;20056;-48
2024/03/15 03:09:17;;;;;;;9.18;2.63;;;;;;;10.29;81.59;98637.84;5009987;28;20152;-47
2024/03/15 03:11:44;;;;;;;12.90;3.00;;;;;;;10.37;80.52;98636.81;5000241;28;20061;-47
2024/03/15 03:14:12;;;;;;;12.85;2.80;;;;;;;10.41;80.69;98641.84;5003720;28;20054;-46
2024/03/15 03:16:42;;;;;;;11.25;2.35;;;;;;;10.44;80.59;98635.78;5002011;28;20046;-50
2024/03/15 03:19:09;;;;;;;8.93;2.28;;;;;;;10.45;81.21;98642.66;5000939;28;20053;-48
2024/03/15 03:21:37;;;;;;;12.25;3.75;;;;;;;10.48;80.90;98634.84;5010663;28;20065;-44
2024/03/15 03:24:04;;;;;;;7.65;3.00;;;;;;;10.46;81.15;98634.00;5002888;28;20111;-51
2024/03/15 03:26:31;;;;;;;9.82;3.50;;;;;;;10.43;80.18;98634.06;5002080;28;22538;-48
2024/03/15 03:28:57;;;;;;;13.25;3.42;;;;;;;10.43;80.92;98634.06;5001888;28;20041;-47
2024/03/15 03:31:24;;;;;;;6.72;3.38;;;;;;;10.47;80.18;98642.63;5001111;28;20049;-44
2024/03/15 03:33:51;;;;;;;11.48;3.75;;;;;;;10.51;79.71;98639.91;5002181;28;20042;-47
2024/03/15 03:36:17;;;;;;;8.25;3.17;;;;;;;10.46;80.41;98639.19;5003926;28;20050;-50
2024/03/15 03:38:44;;;;;;;12.75;3.70;;;;;;;10.49;81.55;98631.34;5001411;28;20056;-47
2024/03/15 03:41:11;;;;;;;5.38;2.78;;;;;;;10.50;80.99;98630.47;4999806;28;20067;-48
2024/03/15 03:43:37;;;;;;;6.45;2.65;;;;;;;10.45;81.97;98627.16;5000431;28;20057;-46
2024/03/15 03:46:06;;;;;;;10.15;1.77;;;;;;;10.46;81.72;98623.66;5003099;28;20419;-46
2024/03/15 03:48:33;;;;;;;9.27;2.58;;;;;;;10.49;81.38;98628.75;5003912;28;20045;-47
2024/03/15 03:51:00;;;;;;;6.00;2.15;;;;;;;10.51;82.31;98632.16;5003303;28;20107;-45
2024/03/15 03:53:27;;;;;;;8.52;2.20;;;;;;;10.50;82.45;98625.28;5008014;28;20053;-49
2024/03/15 03:55:54;;;;;;;4.28;3.13;;;;;;;10.54;82.33;98621.72;5005909;28;20057;-47
2024/03/15 03:58:23;;;;;;;5.68;3.33;;;;;;;10.59;81.45;98620.75;5005078;28;20064;-48
2024/03/15 04:00:50;;;;;;;6.35;3.22;;;;;;;10.60;81.41;98614.72;5005780;28;20053;-46
2024/03/15 04:03:17;;;;;;;6.60;2.28;;;;;;;10.59;81.89;98620.75;5006301;28;20529;-48
2024/03/15 04:05:44;;;;;;;4.97;2.38;;;;;;;10.54;82.53;98616.53;5006030;28;20494;-51
2024/03/15 04:08:12;;;;;;;11.98;4.70;;;;;;;10.60;81.39;98625.06;5004993;28;20096;-45
2024/03/15 04:10:39;;;;;;;6.28;3.22;;;;;;;10.38;83.01;98612.63;5006159;28;20073;-44
2024/03/15 04:13:06;;;;;;;5.43;2.70;;;;;;;10.58;82.25;98616.47;5006044;28;20057;-47
2024/03/15 04:15:33;;;;;;;8.95;3.85;;;;;;;10.64;81.79;98621.50;5004776;28;20187;-47
2024/03/15 04:18:02;;;;;;;6.25;4.25;;;;;;;10.65;82.11;98618.00;5004763;28;20058;-47
2024/03/15 04:20:29;;;;;;;7.30;1.63;;;;;;;10.63;81.49;98615.47;5004021;28;20439;-44
2024/03/15 04:22:56;;;;;;;5.72;3.40;;;;;;;10.60;81.75;98612.13;5010742;28;20046;-47
2024/03/15 04:25:24;;;;;;;9.10;3.33;;;;;;;10.62;81.97;98608.59;5013548;28;20133;-45
2024/03/15 04:27:51;;;;;;;8.93;3.38;;;;;;;10.61;81.88;98603.44;5005286;28;20049;-48
2024/03/15 04:30:22;;;;;;;7.57;2.47;;;;;;;10.61;82.02;98606.03;5004677;28;20056;-46
2024/03/15 04:32:49;;;;;;;3.55;0.95;;;;;;;10.57;82.19;98614.78;5004865;28;20705;-46
2024/03/15 04:35:17;;;;;;;7.03;3.35;;;;;;;10.66;82.02;98604.16;5012400;28;20053;-46
2024/03/15 04:37:45;;;;;;;7.40;3.72;;;;;;;10.69;81.18;98608.41;5032035;28;20045;-45
2024/03/15 04:40:14;;;;;;;6.05;2.67;;;;;;;10.65;82.03;98602.47;5030014;28;20057;-46
2024/03/15 04:42:41;;;;;;;10.57;3.38;;;;;;;10.64;81.19;98604.22;5025770;28;20088;-48
2024/03/15 04:45:09;;;;;;;6.18;2.50;;;;;;;10.60;82.98;98605.19;5031810;28;20045;-47
2024/03/15 04:47:38;;;;;;;9.25;2.28;;;;;;;10.63;81.55;98599.06;5021544;28;20057;-46
2024/03/15 04:50:09;;;;;;;6.35;2.30;;;;;;;10.61;82.62;98600.88;5027418;28;20136;-48
2024/03/15 04:52:37;;;;;;;6.45;2.55;;;;;;;10.58;82.22;98595.75;5036668;28;20062;-45
2024/03/15 04:55:04;;;;;;;7.25;2.20;;;;;;;10.59;81.75;98597.44;5025140;28;20154;-48
2024/03/15 04:57:31;;;;;;;4.75;2.60;;;;;;;10.50;82.57;98596.81;5020587;28;20060;-45
2024/03/15 04:59:58;;;;;;;5.10;2.85;;;;;;;10.61;81.65;98600.88;5024551;28;20055;-44
2024/03/15 05:02:24;;;;;;;4.47;3.03;;;;;;;10.56;82.22;98597.53;5030279;28;20889;-45
2024/03/15 05:04:51;;;;;;;6.00;2.45;;;;;;;10.54;82.13;98593.25;5020492;28;20054;-44
2024/03/15 05:07:18;;;;;;;4.60;2.05;;;;;;;10.57;81.91;98594.06;5019739;28;20061;-49
2024/03/15 05:09:45;;;;;;;7.95;1.45;;;;;;;10.65;82.53;98592.13;5027395;28;20433;-46
2024/03/15 05:12:12;;;;;;;11.73;3.65;;;;;;;10.66;82.36;98588.63;5029159;28;20054;-51
2024/03/15 05:14:39;;;;;;;6.95;3.78;;;;;;;10.54;82.64;98595.81;5031962;28;20061;-48
2024/03/15 05:17:07;;;;;;;9.10;4.03;;;;;;;10.67;81.57;98606.72;5018019;28;20049;-48
2024/03/15 05:19:33;;;;;;;6.55;1.42;;;;;;;10.69;82.38;98596.31;5030404;28;20590;-47
2024/03/15 05:22:05;;;;;;;6.90;3.08;;;;;;;10.72;81.33;98598.84;5029384;28;20140;-50
2024/03/15 05:24:32;;;;;;;6.32;3.15;;;;;;;10.69;81.21;98604.09;5027721;28;20077;-46
2024/03/15 05:26:59;;;;;;;4.10;2.03;;;;;;;10.65;81.88;98587.81;5025274;28;20053;-47
2024/03/15 05:29:26;;;;;;;6.80;2.55;;;;;;;10.71;81.52;98597.13;5027312;28;20045;-47
2024/03/15 05:31:53;;;;;;;7.22;2.50;;;;;;;10.79;81.11;98599.53;5023948;28;20124;-47
2024/03/15 05:34:19;;;;;;;5.85;1.90;;;;;;;10.72;81.18;98598.84;5026216;28;20120;-48
2024/03/15 05:36:46;;;;;;;4.28;2.33;;;;;;;10.69;82.01;98596.31;5027395;28;20129;-44
2024/03/15 05:39:13;;;;;;;8.73;2.83;;;;;;;10.73;81.53;98610.88;5022483;28;20057;-46
2024/03/15 05:41:40;;;;;;;8.43;2.97;;;;;;;10.72;81.60;98601.44;5026894;28;20497;-52
2024/03/15 05:44:09;;;;;;;7.60;2.90;;;;;;;10.73;82.28;98597.06;5024440;28;20038;-47
2024/03/15 05:46:36;;;;;;;8.10;2.30;;;;;;;10.73;82.03;98603.13;5028840;28;20052;-47
2024/03/15 05:49:03;;;;;;;7.90;2.35;;;;;;;10.77;81.58;98607.31;5016446;28;20045;-46
2024/03/15 05:51:32;;;;;;;7.43;2.95;;;;;;;10.72;81.93;98596.25;5027583;28;20053;-47
2024/03/15 05:53:59;;;;;;;4.95;2.30;;;;;;;10.82;81.11;98603.75;5024700;28;20670;-46
2024/03/15 05:56:25;;;;;;;3.85;2.30;;;;;;;10.79;81.58;98618.50;5032737;28;20128;-49
2024/03/15 05:58:52;;;;;;;4.78;2.92;;;;;;;10.70;81.83;98615.31;5021685;28;20076;-47
2024/03/15 06:01:19;;;;;;;6.07;1.88;;;;;;;10.71;81.93;98606.66;5031097;28;20103;-46
2024/03/15 06:03:46;;;;;;;9.77;3.03;;;;;;;10.74;81.74;98617.75;5031691;28;20140;-46
2024/03/15 06:06:12;;;;;;;5.60;2.03;;;;;;;10.76;81.81;98618.59;5022603;28;20045;-47
2024/03/15 06:08:39;;;;;;;5.55;2.30;;;;;;;10.85;80.81;98614.03;5031812;28;20041;-45
2024/03/15 06:11:06;;;;;;;6.05;2.22;;;;;;;10.73;81.86;98621.25;5020221;28;20049;-44
2024/03/15 06:13:32;;;;;;;9.02;2.33;;;;;;;10.81;81.23;98618.47;5031845;28;20049;-51
2024/03/15 06:15:59;;;;;;;8.30;3.30;;;;;;;10.78;81.93;98614.19;5026995;28;20045;-47
2024/03/15 06:18:26;;;;;;;7.65;2.15;;;;;;;10.83;81.12;98613.22;5020379;28;20057;-51
2024/03/15 06:20:53;;;;;;;7.82;2.60;;;;;;;10.82;81.88;98614.97;5029522;28;20506;-50
2024/03/15 06:23:20;;;;;;;5.90;2.78;;;;;;;10.87;80.71;98618.28;5029419;28;20049;-49
2024/03/15 06:25:47;;;;;;;5.88;2.05;;;;;;;10.82;81.27;98624.47;5023891;28;20139;-45
2024/03/15 06:28:14;;;;;;;4.72;2.25;;;;;;;10.76;82.15;98620.31;5019533;28;20192;-51
2024/03/15 06:30:46;;;;;;;12.02;2.45;;;;;;;10.84;81.85;98617.53;5029670;28;20041;-45
2024/03/15 06:33:15;;;;;;;3.60;2.20;;;;;;;10.83;81.35;98631.34;5022355;28;20053;-48
2024/03/15 06:35:43;;;;;;;8.85;3.30;;;;;;;10.87;81.28;98617.41;5028080;28;20076;-48
2024/03/15 06:38:17;;;;;;;4.10;3.63;;;;;;;10.85;81.84;98619.22;5020525;28;20054;-48
2024/03/15 06:40:55;;;;;;;7.63;2.40;;;;;;;10.85;81.22;98629.59;5029000;28;20052;-45
2024/03/15 06:46:19;;;;;;;4.30;2.60;;;;;;;10.88;82.26;98632.09;5009572;28;20060;-47
2024/03/15 06:48:56;;;;;;;4.38;2.25;;;;;;;10.93;82.05;98633.69;5023352;28;20053;-48
2024/03/15 06:54:12;;;;;;;2.58;2.38;;;;;;;10.86;81.92;98639.03;5018189;28;20049;-48
2024/03/15 06:56:41;;;;;;;3.58;2.55;;;;;;;10.99;81.20;98643.03;5023998;28;20057;-50
2024/03/15 06:59:12;;;;;;;4.03;2.10;;;;;;;10.84;81.98;98633.91;5022880;28;20131;-47
2024/03/15 07:01:39;;;;;;;5.80;2.42;;;;;;;10.97;82.15;98646.56;5026282;28;20077;-51
2024/03/15 07:04:07;;;;;;;6.35;2.22;;;;;;;10.97;82.08;98649.97;5029012;28;20045;-46
2024/03/15 07:06:35;;;;;;;6.65;2.47;;;;;;;11.00;81.77;98655.06;5031005;28;20144;-47
2024/03/15 07:09:05;;;;;;;9.90;2.30;;;;;;;11.00;81.10;98655.06;5029945;28;20060;-49
2024/03/15 07:11:33;;;;;;;2.90;2.13;;;;;;;11.01;81.21;98656.75;5021371;28;20053;-45
2024/03/15 07:14:03;;;;;;;4.13;2.25;;;;;;;11.08;81.71;98657.44;5024227;28;20049;-45
2024/03/15 07:16:31;;;;;;;4.82;2.75;;;;;;;11.12;81.09;98660.81;5034257;28;20052;-44
2024/03/15 07:18:59;;;;;;;8.18;2.38;;;;;;;11.08;81.77;98654.84;5023290;28;20141;-46
2024/03/15 07:21:26;;;;;;;4.53;2.80;;;;;;;11.10;81.47;98655.69;5032875;28;20135;-45
2024/03/15 07:23:53;;;;;;;4.50;1.75;;;;;;;11.13;81.44;98662.50;5036728;28;20053;-48
2024/03/15 07:26:19;;;;;;;5.78;2.60;;;;;;;11.26;81.84;98658.69;5033076;28;20513;-47
2024/03/15 07:28:46;;;;;;;9.75;2.47;;;;;;;11.24;81.26;98663.06;5026519;28;20045;-47
2024/03/15 07:31:13;;;;;;;10.55;3.17;;;;;;;11.31;81.03;98669.78;5036861;28;20053;-50
2024/03/15 07:33:40;;;;;;;4.75;2.28;;;;;;;11.30;80.90;98670.69;5024979;28;20458;-46
2024/03/15 07:36:13;;;;;;;4.80;2.13;;;;;;;11.29;81.44;98666.38;5019708;28;20055;-48
2024/03/15 07:38:41;;;;;;;10.05;2.40;;;;;;;11.29;82.17;98674.16;5024797;28;20496;-47
2024/03/15 07:41:10;;;;;;;1.98;1.85;;;;;;;11.32;80.68;98671.47;5019863;28;20456;-47
2024/03/15 07:43:37;;;;;;;7.38;2.05;;;;;;;11.38;81.89;98672.22;5029076;28;20049;-48
2024/03/15 07:46:05;;;;;;;7.57;1.33;;;;;;;11.44;81.24;98672.03;5027935;28;20410;-46
2024/03/15 07:48:32;;;;;;;3.28;2.50;;;;;;;11.32;81.73;98674.06;5036773;28;20053;-46
2024/03/15 07:50:59;;;;;;;4.30;2.13;;;;;;;11.47;81.32;98674.53;5023268;28;20510;-47
2024/03/15 07:53:26;;;;;;;7.13;1.52;;;;;;;11.51;80.54;98677.88;5035501;28;20069;-44
2024/03/15 07:55:54;;;;;;;4.90;2.30;;;;;;;11.47;81.19;98682.31;5027043;28;20160;-46
2024/03/15 07:58:20;;;;;;;7.47;1.63;;;;;;;11.38;80.93;98680.81;5032736;28;20041;-49
2024/03/15 08:00:47;;;;;;;2.75;1.90;;;;;;;11.50;80.08;98679.63;5028941;28;20054;-44
2024/03/15 08:03:14;;;;;;;7.57;3.15;;;;;;;11.44;80.51;98679.78;5024215;28;20505;-47
2024/03/15 08:05:42;;;;;;;5.68;3.05;;;;;;;11.61;80.29;98692.28;5030558;28;20068;-44
2024/03/15 08:08:09;;;;;;;9.45;2.13;;;;;;;11.64;79.88;98686.16;5032530;28;20049;-48
2024/03/15 08:10:36;;;;;;;6.72;2.42;;;;;;;11.69;79.72;98700.69;5031743;28;20059;-45
2024/03/15 08:13:02;;;;;;;9.55;2.42;;;;;;;11.59;79.87;98698.41;5031656;28;20053;-46
2024/03/15 08:15:32;;;;;;;4.03;1.63;;;;;;;11.69;79.81;98715.41;5024767;28;20216;-47
2024/03/15 08:18:00;;;;;;;5.68;2.65;;;;;;;11.75;80.54;98704.84;5033712;28;20045;-47
2024/03/15 08:20:26;;;;;;;4.68;2.42;;;;;;;11.75;79.58;98699.66;5028269;28;20045;-48
2024/03/15 08:22:57;;;;;;;3.30;2.28;;;;;;;11.82;80.78;98711.56;5034337;28;20055;-46
2024/03/15 08:25:24;;;;;;;5.05;3.35;;;;;;;11.85;79.24;98705.44;5019518;28;20104;-44
2024/03/15 08:27:51;;;;;;;5.50;2.47;;;;;;;11.92;79.76;98706.94;5025152;28;20045;-47
2024/03/15 08:30:23;;;;;;;2.03;1.85;;;;;;;12.00;79.17;98709.31;5023116;28;20080;-45
2024/03/15 08:32:51;;;;;;;2.63;1.85;;;;;;;12.11;79.74;98703.81;5024699;28;20041;-46
2024/03/15 08:35:18;;;;;;;5.30;2.15;;;;;;;12.37;77.91;98709.09;5024796;28;20509;-49
2024/03/15 08:37:44;;;;;;;2.25;1.98;;;;;;;12.56;78.01;98707.59;5026813;28;20046;-50
2024/03/15 08:40:13;;;;;;;3.70;1.80;;;;;;;12.70;76.48;98716.72;5024560;28;20080;-48
2024/03/15 08:42:40;;;;;;;7.32;3.03;;;;;;;12.77;77.19;98715.59;5024074;28;20053;-46
2024/03/15 08:45:08;;;;;;;7.57;3.13;;;;;;;12.72;76.80;98717.50;5023588;28;20091;-44
2024/03/15 08:47:39;;;;;;;9.20;2.50;;;;;;;12.70;76.47;98721.91;5020909;28;20123;-46
2024/03/15 08:50:32;;;;;;;6.50;3.95;;;;;;;12.65;77.76;98726.38;5021756;28;20254;-49
2024/03/15 08:52:59;;;;;;;8.18;2.30;;;;;;;12.69;77.78;98727.97;5027932;28;20057;-48
2024/03/15 08:55:26;;;;;;;3.65;1.85;;;;;;;12.50;76.94;98731.16;5028209;28;20042;-44
2024/03/15 08:57:53;;;;;;;5.82;3.20;;;;;;;12.49;77.54;98737.28;5018724;28;20057;-47
2024/03/15 09:00:20;;;;;;;4.32;1.70;;;;;;;12.32;76.72;98736.06;5032752;28;20781;-47
2024/03/15 09:02:47;;;;;;;6.13;1.88;;;;;;;12.40;78.13;98740.16;5029045;28;20058;-46
2024/03/15 09:05:14;;;;;;;5.78;2.22;;;;;;;12.45;78.41;98746.06;5034929;28;20049;-45
2024/03/15 09:07:41;;;;;;;7.05;2.83;;;;;;;12.43;78.20;98753.06;5025968;28;20053;-45
2024/03/15 09:10:13;;;;;;;5.28;2.38;;;;;;;12.39;77.97;98738.47;5023100;28;20057;-47
2024/03/15 09:12:43;;;;;;;5.72;2.42;;;;;;;12.44;78.00;98745.22;5026264;28;20155;-44
2024/03/15 09:15:14;;;;;;;4.30;2.35;;;;;;;12.49;78.04;98752.03;5025246;28;20045;-46
2024/03/15 09:17:41;;;;;;;4.43;2.33;;;;;;;12.44;77.96;98740.03;5022351;28;20556;-49
2024/03/15 09:20:18;;;;;;;6.35;2.30;;;;;;;12.64;78.06;98750.66;5028800;28;20103;-45
2024/03/15 09:22:47;;;;;;;6.22;2.25;;;;;;;12.62;77.63;98757.66;5025187;28;20528;-44
2024/03/15 09:25:18;;;;;;;2.42;2.22;;;;;;;12.57;77.36;98763.84;5022758;28;20045;-46
2024/03/15 09:27:49;;;;;;;4.97;1.77;;;;;;;12.55;77.37;98763.06;5020862;28;20053;-50
2024/03/15 09:30:16;;;;;;;3.00;1.95;;;;;;;12.55;77.57;98763.06;5038515;28;20061;-49
2024/03/15 09:32:44;;;;;;;5.88;1.83;;;;;;;12.56;78.07;98758.69;5036333;28;20111;-52
2024/03/15 09:35:15;;;;;;;3.60;2.05;;;;;;;12.54;78.52;98758.78;5034195;28;20136;-45
2024/03/15 09:37:57;;;;;;;4.55;2.08;;;;;;;12.64;78.20;98750.66;5036324;28;20525;-46
2024/03/15 09:40:25;;;;;;;4.70;2.63;;;;;;;12.65;77.86;98762.75;5025400;28;20057;-48
2024/03/15 09:42:53;;;;;;;6.68;2.28;;;;;;;12.81;77.88;98763.13;5025393;28;20045;-45
2024/03/15 09:45:22;;;;;;;7.45;3.20;;;;;;;13.03;77.88;98765.03;5024023;28;20136;-46
2024/03/15 09:47:49;;;;;;;1.83;1.70;;;;;;;13.02;77.56;98771.94;5026987;28;20077;-44
2024/03/15 09:50:21;;;;;;;4.00;2.03;;;;;;;13.00;76.46;98763.34;5033865;28;20049;-45
2024/03/15 09:52:49;;;;;;;5.90;1.70;;;;;;;13.03;75.86;98763.25;5029561;28;20414;-47
2024/03/15 09:55:17;;;;;;;6.43;2.80;;;;;;;13.29;76.21;98758.06;5029453;28;20046;-46
2024/03/15 09:57:45;;;;;;;5.20;1.73;;;;;;;13.36;74.84;98759.56;5024472;28;20122;-45
2024/03/15 10:00:16;;;;;;;2.22;1.73;;;;;;;13.51;75.29;98767.75;5021592;28;20119;-48
2024/03/15 10:02:44;;;;;;;4.80;4.47;;;;;;;13.70;75.46;98766.19;5019329;28;20053;-45
2024/03/15 10:05:12;;;;;;;3.80;2.25;;;;;;;13.88;74.50;98769.88;5025800;28;20064;-48
2024/03/15 10:07:39;;;;;;;1.90;1.75;;;;;;;13.93;74.11;98768.84;5024581;28;20053;-45
2024/03/15 10:10:11;;;;;;;11.57;4.38;;;;;;;14.06;74.10;98780.50;5026565;28;20107;-45
2024/03/15 10:12:44;;;;;;;5.30;3.15;;;;;;;13.99;72.81;98777.25;5030401;28;20132;-48
2024/03/15 10:15:13;;;;;;;5.47;1.10;;;;;;;14.08;73.67;98775.25;5025715;28;20163;-45
2024/03/15 10:17:43;;;;;;;4.78;2.88;;;;;;;13.90;72.69;98780.22;5024363;28;20045;-46
2024/03/15 10:20:14;;;;;;;7.40;3.65;;;;;;;13.96;73.27;98781.75;5024807;28;20084;-45
2024/03/15 10:22:41;;;;;;;5.68;1.77;;;;;;;13.84;72.27;98776.09;5022179;28;20420;-45
2024/03/15 10:25:15;;;;;;;6.22;2.72;;;;;;;13.77;72.04;98773.78;5028656;28;20049;-44
2024/03/15 10:27:43;;;;;;;6.68;2.75;;;;;;;13.69;72.19;98781.84;5024932;28;20114;-45
2024/03/15 10:30:15;;;;;;;10.32;2.97;;;;;;;13.64;71.98;98778.56;5020883;28;21236;-46
2024/03/15 10:32:46;;;;;;;5.35;2.60;;;;;;;13.65;72.24;98780.25;5022995;28;20057;-44
2024/03/15 10:35:15;;;;;;;11.48;3.72;;;;;;;13.59;71.63;98792.59;5025698;28;20167;-47
2024/03/15 10:37:44;;;;;;;10.93;2.35;;;;;;;13.71;71.84;98774.84;5022086;28;20645;-47
2024/03/15 10:40:14;;;;;;;8.82;2.25;;;;;;;13.64;70.88;98779.41;5023808;28;20057;-44
2024/03/15 10:42:44;;;;;;;7.57;2.95;;;;;;;13.71;71.62;98780.06;5025998;28;20183;-45
2024/03/15 10:45:12;;;;;;;8.25;3.08;;;;;;;13.72;71.84;98776.53;5025109;28;20111;-46
2024/03/15 10:47:40;;;;;;;8.20;3.03;;;;;;;13.62;71.68;98784.66;5024318;28;20138;-46
2024/03/15 10:50:11;;;;;;;6.55;3.13;;;;;;;13.60;71.94;98783.03;5022705;28;20057;-45
2024/03/15 10:52:41;;;;;;;11.00;4.80;;;;;;;13.59;71.44;98779.59;5020644;28;20049;-43
2024/03/15 10:55:17;;;;;;;5.30;3.13;;;;;;;13.46;70.41;98775.69;5026021;28;20147;-42
2024/03/15 10:57:45;;;;;;;12.52;3.25;;;;;;;13.46;71.57;98767.88;5023693;28;20049;-48
2024/03/15 11:00:14;;;;;;;8.00;3.17;;;;;;;13.55;70.81;98775.41;5025932;28;20517;-44
2024/03/15 11:02:43;;;;;;;5.75;2.67;;;;;;;13.47;70.90;98772.16;5029102;28;20045;-46
2024/03/15 11:05:19;;;;;;;15.68;4.43;;;;;;;13.60;70.72;98773.47;5030621;28;20045;-44
2024/03/15 11:07:47;;;;;;;12.20;3.22;;;;;;;13.96;71.63;98768.72;5031716;28;20044;-42
2024/03/15 11:10:19;;;;;;;9.15;2.35;;;;;;;14.38;70.80;98770.59;5024783;28;20415;-43
2024/03/15 11:12:50;;;;;;;10.20;3.67;;;;;;;14.60;69.66;98774.13;5026410;28;20073;-43
2024/03/15 11:15:20;;;;;;;9.25;4.72;;;;;;;14.60;68.61;98774.97;5028239;28;20048;-41
2024/03/15 11:18:08;;;;;;;6.40;2.80;;;;;;;14.50;66.90;98790.13;5024269;28;20057;-41
2024/03/15 11:23:27;;;;;;;7.97;1.85;;;;;;;15.08;67.70;98777.41;5084184;27;20359;-43
2024/03/15 11:25:57;;;;;;;7.35;2.03;;;;;;;15.21;66.93;98784.72;5064724;28;20052;-44
2024/03/15 11:28:26;;;;;;;6.30;1.17;;;;;;;15.24;66.49;98779.38;5065320;28;20076;-44
2024/03/15 11:30:52;;;;;;;8.23;1.55;;;;;;;15.29;66.28;98777.41;5066595;28;20041;-46
2024/03/15 11:33:20;;;;;;;5.88;1.67;;;;;;;15.24;65.58;98776.78;5061995;28;20103;-43
2024/03/15 11:35:48;;;;;;;7.35;0.95;;;;;;;15.31;65.67;98791.25;5069341;28;20044;-43
2024/03/15 11:38:17;;;;;;;8.88;1.23;;;;;;;15.18;64.65;98784.84;5053494;28;20698;-45
2024/03/15 11:40:44;;;;;;;9.30;1.42;;;;;;;15.06;64.49;98775.78;5056176;28;20098;-46
2024/03/15 11:43:13;;;;;;;6.65;1.65;;;;;;;15.19;65.82;98786.56;5058558;28;20048;-44
2024/03/15 11:45:42;;;;;;;5.60;1.17;;;;;;;15.49;65.45;98778.31;5052481;28;20391;-46